createdAt,value
2018-05-25T00:00:24.871Z,21.94
2018-05-25T00:02:52.478Z,21.93
2018-05-25T00:05:20.127Z,21.95
2018-05-25T00:07:47.742Z,21.88
2018-05-25T00:10:15.383Z,21.79
2018-05-25T00:12:43.022Z,21.83
2018-05-25T00:15:10.646Z,21.77
2018-05-25T00:17:38.294Z,21.79
2018-05-25T00:20:05.907Z,21.68
2018-05-25T00:22:33.563Z,21.67
2018-05-25T00:25:01.180Z,21.65
2018-05-25T00:27:28.833Z,21.64
2018-05-25T00:29:57.123Z,21.65
2018-05-25T00:32:24.768Z,21.60
2018-05-25T00:34:52.376Z,21.61
2018-05-25T00:37:20.018Z,21.62
2018-05-25T00:39:47.630Z,21.60
2018-05-25T00:42:15.278Z,21.60
2018-05-25T00:44:42.899Z,21.58
2018-05-25T00:47:10.547Z,21.49
2018-05-25T00:49:38.160Z,21.46
2018-05-25T00:52:05.818Z,21.45
2018-05-25T00:54:33.432Z,21.34
2018-05-25T00:57:01.093Z,21.36
2018-05-25T00:59:28.698Z,21.37
2018-05-25T01:01:56.347Z,21.44
2018-05-25T01:04:23.961Z,21.50
2018-05-25T01:06:51.625Z,21.33
2018-05-25T01:09:19.244Z,21.31
2018-05-25T01:11:46.903Z,21.32
2018-05-25T01:14:14.519Z,21.42
2018-05-25T01:16:42.174Z,21.48
2018-05-25T01:19:09.790Z,21.42
2018-05-25T01:21:37.448Z,21.41
2018-05-25T01:24:05.062Z,21.32
2018-05-25T01:26:32.727Z,21.37
2018-05-25T01:29:00.447Z,21.38
2018-05-25T01:31:28.103Z,21.41
2018-05-25T01:33:55.803Z,21.42
2018-05-25T01:36:23.454Z,21.43
2018-05-25T01:38:51.070Z,21.31
2018-05-25T01:41:18.730Z,21.17
2018-05-25T01:43:46.355Z,21.12
2018-05-25T01:46:14.014Z,21.09
2018-05-25T01:48:41.622Z,21.09
2018-05-25T01:51:09.266Z,21.09
2018-05-25T01:53:36.879Z,21.14
2018-05-25T01:56:04.540Z,21.09
2018-05-25T01:58:32.158Z,21.06
2018-05-25T02:00:59.819Z,21.06
2018-05-25T02:03:27.435Z,21.03
2018-05-25T02:05:55.091Z,20.97
2018-05-25T02:08:22.708Z,20.88
2018-05-25T02:10:50.322Z,20.85
2018-05-25T02:13:17.980Z,20.86
2018-05-25T02:15:45.673Z,20.88
2018-05-25T02:18:13.331Z,20.89
2018-05-25T02:20:40.947Z,20.78
2018-05-25T02:23:08.619Z,20.82
2018-05-25T02:25:36.239Z,20.81
2018-05-25T02:28:03.894Z,20.78
2018-05-25T02:30:31.512Z,20.77
2018-05-25T02:32:59.319Z,20.72
2018-05-25T02:35:26.931Z,20.70
2018-05-25T02:37:54.591Z,20.66
2018-05-25T02:40:22.347Z,20.66
2018-05-25T02:42:49.995Z,20.55
2018-05-25T02:45:17.615Z,20.57
2018-05-25T02:47:45.279Z,20.53
2018-05-25T02:50:12.895Z,20.52
2018-05-25T02:52:40.556Z,20.52
2018-05-25T02:55:08.175Z,20.54
2018-05-25T02:57:35.833Z,20.53
2018-05-25T03:00:03.522Z,20.55
2018-05-25T03:02:31.175Z,20.52
2018-05-25T03:04:58.791Z,20.40
2018-05-25T03:07:26.442Z,20.44
2018-05-25T03:09:54.123Z,20.53
2018-05-25T03:12:21.776Z,20.57
2018-05-25T03:14:49.394Z,20.47
2018-05-25T03:17:17.054Z,20.59
2018-05-25T03:19:44.680Z,20.64
2018-05-25T03:22:12.341Z,20.69
2018-05-25T03:24:39.963Z,20.69
2018-05-25T03:27:07.623Z,20.67
2018-05-25T03:29:35.232Z,20.69
2018-05-25T03:32:02.886Z,20.50
2018-05-25T03:34:30.500Z,20.62
2018-05-25T03:36:58.154Z,20.71
2018-05-25T03:39:25.766Z,20.55
2018-05-25T03:41:53.418Z,20.46
2018-05-25T03:44:21.035Z,20.50
2018-05-25T03:46:48.703Z,20.59
2018-05-25T03:49:16.311Z,20.57
2018-05-25T03:51:43.969Z,20.59
2018-05-25T03:54:11.602Z,20.15
2018-05-25T03:56:39.252Z,20.23
2018-05-25T03:59:18.780Z,20.24
2018-05-25T04:01:58.370Z,19.69
2018-05-25T04:04:25.988Z,20.23
2018-05-25T04:06:53.644Z,20.09
2018-05-25T04:09:21.263Z,20.03
2018-05-25T04:11:48.928Z,19.78
2018-05-25T04:14:16.550Z,19.80
2018-05-25T04:16:44.212Z,20.02
2018-05-25T04:19:11.833Z,20.23
2018-05-25T04:21:39.491Z,20.37
2018-05-25T04:24:07.102Z,20.43
2018-05-25T04:26:34.726Z,20.46
2018-05-25T04:29:02.383Z,20.49
2018-05-25T04:31:29.996Z,20.52
2018-05-25T04:33:57.651Z,20.57
2018-05-25T04:36:25.270Z,20.54
2018-05-25T04:38:52.926Z,20.28
2018-05-25T04:41:20.534Z,20.22
2018-05-25T04:43:48.187Z,20.00
2018-05-25T04:46:15.799Z,20.04
2018-05-25T04:48:43.459Z,20.14
2018-05-25T04:51:11.079Z,20.23
2018-05-25T04:53:38.802Z,20.41
2018-05-25T04:56:06.388Z,20.53
2018-05-25T04:58:34.048Z,20.35
2018-05-25T05:01:01.666Z,20.36
2018-05-25T05:03:29.323Z,20.45
2018-05-25T05:05:56.936Z,20.55
2018-05-25T05:08:24.599Z,20.45
2018-05-25T05:10:52.211Z,20.45
2018-05-25T05:13:20.027Z,20.66
2018-05-25T05:15:47.649Z,20.82
2018-05-25T05:18:15.299Z,20.96
2018-05-25T05:20:42.907Z,21.03
2018-05-25T05:23:10.563Z,20.83
2018-05-25T05:25:38.184Z,21.00
2018-05-25T05:28:05.844Z,20.76
2018-05-25T05:30:33.548Z,20.45
2018-05-25T05:33:01.203Z,20.88
2018-05-25T05:35:28.830Z,21.15
2018-05-25T05:37:56.492Z,21.26
2018-05-25T05:40:24.103Z,21.35
2018-05-25T05:42:51.755Z,21.52
2018-05-25T05:45:19.366Z,21.56
2018-05-25T05:47:47.023Z,21.60
2018-05-25T05:50:14.642Z,21.67
2018-05-25T05:52:42.294Z,21.82
2018-05-25T05:55:09.907Z,21.42
2018-05-25T05:57:37.563Z,21.39
2018-05-25T06:00:05.188Z,21.32
2018-05-25T06:02:32.851Z,21.32
2018-05-25T06:05:00.466Z,21.36
2018-05-25T06:07:28.130Z,21.52
2018-05-25T06:09:55.750Z,21.52
2018-05-25T06:12:23.433Z,21.84
2018-05-25T06:14:51.051Z,21.79
2018-05-25T06:17:18.711Z,21.70
2018-05-25T06:19:46.331Z,21.91
2018-05-25T06:22:13.988Z,22.19
2018-05-25T06:24:41.599Z,22.29
2018-05-25T06:27:09.258Z,21.88
2018-05-25T06:29:36.870Z,21.97
2018-05-25T06:32:04.498Z,21.89
2018-05-25T06:34:32.469Z,22.22
2018-05-25T06:37:00.334Z,22.08
2018-05-25T06:39:28.095Z,22.03
2018-05-25T06:41:55.817Z,21.78
2018-05-25T06:44:23.781Z,21.34
2018-05-25T06:46:51.598Z,21.45
2018-05-25T06:49:19.416Z,21.69
2018-05-25T06:51:47.108Z,21.97
2018-05-25T06:54:14.890Z,21.49
2018-05-25T06:56:42.616Z,21.80
2018-05-25T06:59:10.422Z,22.18
2018-05-25T07:01:38.128Z,21.76
2018-05-25T07:04:06.001Z,21.54
2018-05-25T07:06:33.815Z,21.73
2018-05-25T07:09:01.627Z,22.03
2018-05-25T07:11:29.447Z,22.10
2018-05-25T07:13:57.315Z,22.33
2018-05-25T07:16:25.079Z,22.80
2018-05-25T07:18:52.735Z,22.88
2018-05-25T07:21:20.350Z,22.34
2018-05-25T07:23:48.011Z,22.42
2018-05-25T07:26:15.624Z,22.57
2018-05-25T07:28:43.290Z,22.48
2018-05-25T07:31:11.004Z,22.97
2018-05-25T07:33:38.821Z,24.54
2018-05-25T07:36:06.582Z,25.79
2018-05-25T07:38:34.448Z,24.47
2018-05-25T07:41:02.172Z,23.98
2018-05-25T07:43:29.980Z,25.22
2018-05-25T07:45:57.705Z,26.43
2018-05-25T07:48:25.471Z,25.17
2018-05-25T07:50:53.269Z,25.22
2018-05-25T07:53:21.082Z,26.22
2018-05-25T07:55:48.900Z,26.08
2018-05-25T07:58:16.717Z,24.95
2018-05-25T08:00:44.533Z,26.41
2018-05-25T08:03:12.400Z,25.78
2018-05-25T08:05:40.117Z,26.61
2018-05-25T08:08:07.929Z,25.85
2018-05-25T08:10:35.695Z,25.37
2018-05-25T08:13:03.563Z,25.58
2018-05-25T08:15:31.285Z,25.89
2018-05-25T08:17:59.004Z,25.52
2018-05-25T08:20:26.649Z,25.81
2018-05-25T08:22:54.516Z,25.02
2018-05-25T08:25:22.175Z,24.15
2018-05-25T08:27:49.830Z,24.59
2018-05-25T08:30:17.502Z,24.75
2018-05-25T08:32:45.471Z,24.67
2018-05-25T08:35:13.338Z,24.97
2018-05-25T08:37:41.106Z,24.55
2018-05-25T08:40:08.972Z,24.75
2018-05-25T08:42:36.734Z,24.57
2018-05-25T08:45:04.568Z,24.96
2018-05-25T08:47:32.307Z,25.35
2018-05-25T08:50:00.024Z,25.18
2018-05-25T08:52:27.791Z,25.86
2018-05-25T08:54:55.659Z,25.85
2018-05-25T08:57:23.425Z,25.35
2018-05-25T08:59:51.452Z,25.49
2018-05-25T09:02:19.158Z,25.01
2018-05-25T09:04:47.025Z,25.72
2018-05-25T09:07:14.686Z,25.68
2018-05-25T09:09:42.355Z,24.92
2018-05-25T09:12:10.007Z,25.25
2018-05-25T09:14:37.772Z,25.45
2018-05-25T09:17:05.484Z,24.54
2018-05-25T09:19:33.203Z,24.84
2018-05-25T09:22:00.967Z,25.70
2018-05-25T09:24:28.833Z,25.77
2018-05-25T09:26:56.597Z,25.19
2018-05-25T09:29:24.465Z,25.95
2018-05-25T09:31:52.186Z,26.33
2018-05-25T09:34:19.993Z,25.44
2018-05-25T09:36:47.721Z,25.97
2018-05-25T09:39:15.523Z,25.84
2018-05-25T09:41:43.180Z,26.15
2018-05-25T09:44:11.052Z,25.76
2018-05-25T09:46:38.817Z,26.01
2018-05-25T09:49:06.683Z,26.97
2018-05-25T09:51:34.424Z,26.49
2018-05-25T09:54:02.165Z,25.70
2018-05-25T09:56:29.978Z,26.04
2018-05-25T09:58:57.849Z,26.28
2018-05-25T10:01:25.712Z,25.75
2018-05-25T10:03:53.577Z,26.53
2018-05-25T10:06:21.342Z,26.70
2018-05-25T10:08:49.209Z,27.48
2018-05-25T10:11:16.968Z,28.57
2018-05-25T10:13:44.631Z,28.17
2018-05-25T10:16:12.255Z,27.23
2018-05-25T10:18:39.906Z,28.29
2018-05-25T10:21:07.537Z,27.44
2018-05-25T10:23:35.255Z,27.33
2018-05-25T10:26:02.878Z,27.13
2018-05-25T10:28:30.527Z,28.01
2018-05-25T10:30:58.176Z,29.54
2018-05-25T10:33:25.839Z,27.45
2018-05-25T10:35:53.455Z,28.65
2018-05-25T10:38:21.118Z,27.85
2018-05-25T10:40:48.737Z,28.66
2018-05-25T10:43:16.491Z,29.89
2018-05-25T10:45:44.116Z,29.56
2018-05-25T10:48:11.806Z,29.58
2018-05-25T10:50:39.594Z,27.68
2018-05-25T10:53:07.210Z,28.34
2018-05-25T10:55:34.863Z,28.09
2018-05-25T10:58:02.470Z,27.06
2018-05-25T11:00:30.131Z,28.15
2018-05-25T11:02:57.739Z,29.14
2018-05-25T11:05:25.543Z,30.35
2018-05-25T11:07:53.314Z,28.91
2018-05-25T11:10:20.971Z,29.44
2018-05-25T11:12:48.587Z,28.55
2018-05-25T11:15:16.247Z,29.88
2018-05-25T11:17:43.853Z,30.00
2018-05-25T11:20:11.509Z,30.53
2018-05-25T11:22:39.127Z,29.46
2018-05-25T11:25:06.836Z,30.93
2018-05-25T11:27:34.566Z,30.66
2018-05-25T11:30:02.470Z,29.97
2018-05-25T11:32:30.127Z,29.23
2018-05-25T11:34:57.998Z,30.62
2018-05-25T11:37:25.712Z,29.42
2018-05-25T11:39:53.456Z,28.90
2018-05-25T11:42:21.189Z,29.10
2018-05-25T11:44:49.056Z,28.63
2018-05-25T11:47:16.820Z,28.03
2018-05-25T11:49:44.479Z,29.25
2018-05-25T11:52:12.212Z,28.38
2018-05-25T11:54:39.879Z,29.89
2018-05-25T11:57:07.494Z,30.30
2018-05-25T11:59:35.146Z,29.98
2018-05-25T12:02:02.759Z,29.17
2018-05-25T12:04:30.420Z,29.58
2018-05-25T12:06:58.035Z,30.23
2018-05-25T12:09:25.690Z,30.74
2018-05-25T12:11:53.318Z,29.26
2018-05-25T12:14:20.977Z,29.85
2018-05-25T12:16:48.601Z,30.24
2018-05-25T12:19:16.263Z,30.35
2018-05-25T12:21:43.877Z,29.60
2018-05-25T12:24:11.534Z,30.03
2018-05-25T12:26:39.139Z,29.61
2018-05-25T12:29:06.803Z,29.59
2018-05-25T12:31:34.423Z,30.56
2018-05-25T12:34:02.081Z,29.54
2018-05-25T12:36:29.699Z,28.65
2018-05-25T12:38:57.411Z,29.51
2018-05-25T12:41:25.015Z,28.26
2018-05-25T12:43:52.675Z,28.67
2018-05-25T12:46:20.291Z,29.51
2018-05-25T12:48:47.956Z,29.70
2018-05-25T12:51:15.575Z,29.18
2018-05-25T12:53:43.238Z,29.73
2018-05-25T12:56:10.849Z,30.13
2018-05-25T12:58:38.462Z,30.10
2018-05-25T13:01:06.105Z,29.55
2018-05-25T13:03:33.728Z,30.04
2018-05-25T13:06:01.388Z,29.37
2018-05-25T13:08:28.991Z,29.36
2018-05-25T13:10:56.643Z,29.23
2018-05-25T13:13:24.242Z,29.64
2018-05-25T13:15:51.894Z,29.43
2018-05-25T13:18:19.502Z,29.29
2018-05-25T13:20:47.151Z,29.71
2018-05-25T13:23:14.760Z,29.59
2018-05-25T13:25:42.411Z,29.21
2018-05-25T13:28:10.018Z,29.68
2018-05-25T13:30:37.663Z,30.25
2018-05-25T13:33:05.275Z,30.03
2018-05-25T13:35:32.922Z,30.65
2018-05-25T13:38:00.526Z,30.08
2018-05-25T13:40:28.171Z,30.52
2018-05-25T13:42:55.782Z,29.39
2018-05-25T13:45:23.427Z,28.84
2018-05-25T13:47:51.031Z,29.60
2018-05-25T13:50:18.683Z,28.76
2018-05-25T13:52:46.292Z,29.21
2018-05-25T13:55:14.840Z,30.76
2018-05-25T13:57:42.450Z,31.32
2018-05-25T14:00:10.094Z,29.65
2018-05-25T14:02:37.693Z,29.69
2018-05-25T14:05:05.334Z,29.78
2018-05-25T14:07:32.940Z,30.50
2018-05-25T14:10:00.588Z,30.60
2018-05-25T14:12:28.196Z,31.17
2018-05-25T14:14:55.839Z,32.29
2018-05-25T14:17:23.441Z,32.46
2018-05-25T14:19:51.102Z,32.46
2018-05-25T14:22:18.719Z,30.98
2018-05-25T14:24:46.368Z,30.00
2018-05-25T14:27:13.974Z,29.96
2018-05-25T14:29:41.632Z,30.97
2018-05-25T14:32:09.240Z,30.58
2018-05-25T14:34:36.887Z,29.86
2018-05-25T14:37:04.494Z,30.28
2018-05-25T14:39:32.143Z,31.39
2018-05-25T14:41:59.742Z,30.31
2018-05-25T14:44:27.395Z,30.65
2018-05-25T14:46:55.000Z,31.66
2018-05-25T14:49:22.651Z,31.53
2018-05-25T14:51:50.259Z,30.26
2018-05-25T14:54:17.901Z,31.53
2018-05-25T14:56:45.552Z,32.00
2018-05-25T14:59:13.160Z,31.73
2018-05-25T15:01:40.802Z,31.41
2018-05-25T15:04:08.411Z,32.47
2018-05-25T15:06:36.150Z,32.91
2018-05-25T15:09:03.855Z,30.08
2018-05-25T15:11:31.499Z,30.39
2018-05-25T15:13:59.113Z,31.33
2018-05-25T15:16:26.771Z,32.11
2018-05-25T15:18:54.384Z,32.67
2018-05-25T15:21:22.066Z,31.11
2018-05-25T15:23:49.680Z,31.24
2018-05-25T15:26:17.331Z,32.06
2018-05-25T15:28:44.934Z,31.90
2018-05-25T15:31:13.355Z,32.31
2018-05-25T15:33:40.975Z,32.32
2018-05-25T15:36:08.642Z,32.96
2018-05-25T15:38:36.248Z,31.60
2018-05-25T15:41:03.904Z,30.93
2018-05-25T15:43:31.572Z,30.90
2018-05-25T15:45:59.225Z,31.46
2018-05-25T15:48:26.836Z,30.42
2018-05-25T15:50:54.479Z,30.53
2018-05-25T15:53:22.089Z,30.91
2018-05-25T15:55:49.743Z,30.74
2018-05-25T15:58:17.356Z,31.32
2018-05-25T16:00:45.002Z,31.37
2018-05-25T16:03:12.608Z,30.60
2018-05-25T16:05:40.258Z,30.83
2018-05-25T16:08:07.865Z,30.60
2018-05-25T16:10:36.334Z,31.09
2018-05-25T16:13:03.938Z,31.61
2018-05-25T16:15:31.584Z,31.67
2018-05-25T16:17:59.195Z,31.76
2018-05-25T16:20:26.844Z,30.51
2018-05-25T16:22:54.451Z,29.84
2018-05-25T16:25:22.103Z,29.62
2018-05-25T16:27:49.718Z,29.86
2018-05-25T16:30:17.367Z,31.05
2018-05-25T16:32:44.978Z,31.19
2018-05-25T16:35:12.623Z,31.32
2018-05-25T16:37:40.232Z,31.50
2018-05-25T16:40:07.913Z,30.77
2018-05-25T16:42:35.527Z,29.74
2018-05-25T16:45:03.175Z,29.62
2018-05-25T16:47:30.780Z,29.73
2018-05-25T16:49:58.423Z,30.20
2018-05-25T16:52:26.026Z,29.80
2018-05-25T16:54:53.688Z,30.16
2018-05-25T16:57:21.300Z,30.22
2018-05-25T16:59:48.942Z,29.95
2018-05-25T17:02:16.553Z,30.10
2018-05-25T17:04:44.186Z,30.00
2018-05-25T17:07:11.840Z,30.56
2018-05-25T17:09:39.448Z,30.39
2018-05-25T17:12:07.095Z,29.82
2018-05-25T17:14:34.699Z,30.80
2018-05-25T17:17:02.346Z,30.38
2018-05-25T17:19:29.963Z,30.30
2018-05-25T17:21:57.606Z,30.23
2018-05-25T17:24:25.248Z,30.75
2018-05-25T17:26:52.898Z,30.57
2018-05-25T17:29:20.506Z,31.08
2018-05-25T17:31:48.161Z,30.71
2018-05-25T17:34:15.768Z,30.37
2018-05-25T17:36:43.415Z,30.19
2018-05-25T17:39:11.024Z,30.30
2018-05-25T17:41:38.687Z,30.72
2018-05-25T17:44:06.302Z,30.89
2018-05-25T17:46:33.982Z,31.05
2018-05-25T17:49:01.593Z,31.12
2018-05-25T17:51:29.242Z,30.80
2018-05-25T17:53:56.847Z,30.84
2018-05-25T17:56:24.491Z,30.66
2018-05-25T17:58:52.100Z,30.58
2018-05-25T18:01:19.741Z,30.18
2018-05-25T18:03:47.355Z,29.61
2018-05-25T18:06:15.012Z,29.19
2018-05-25T18:08:42.615Z,29.00
2018-05-25T18:11:10.271Z,29.22
2018-05-25T18:13:38.032Z,29.16
2018-05-25T18:16:05.695Z,28.50
2018-05-25T18:18:33.415Z,28.58
2018-05-25T18:21:01.124Z,28.40
2018-05-25T18:23:28.887Z,28.25
2018-05-25T18:25:56.753Z,28.14
2018-05-25T18:28:24.517Z,28.06
2018-05-25T18:30:52.388Z,28.34
2018-05-25T18:33:20.092Z,28.42
2018-05-25T18:35:47.913Z,28.49
2018-05-25T18:38:15.630Z,28.36
2018-05-25T18:40:43.442Z,28.24
2018-05-25T18:43:11.159Z,28.15
2018-05-25T18:45:38.971Z,27.98
2018-05-25T18:48:06.700Z,28.13
2018-05-25T18:50:34.398Z,28.01
2018-05-25T18:53:02.163Z,27.98
2018-05-25T18:55:29.927Z,27.85
2018-05-25T18:57:57.636Z,27.68
2018-05-25T19:00:25.455Z,27.59
2018-05-25T19:02:53.119Z,27.52
2018-05-25T19:05:20.881Z,27.45
2018-05-25T19:07:48.609Z,27.37
2018-05-25T19:10:16.412Z,27.36
2018-05-25T19:12:44.068Z,27.12
2018-05-25T19:15:11.737Z,27.19
2018-05-25T19:17:39.401Z,27.12
2018-05-25T19:20:07.162Z,27.17
2018-05-25T19:22:34.927Z,26.99
2018-05-25T19:25:02.694Z,27.11
2018-05-25T19:27:30.456Z,27.18
2018-05-25T19:29:58.119Z,27.27
2018-05-25T19:32:25.922Z,27.11
2018-05-25T19:34:53.648Z,26.99
2018-05-25T19:37:21.359Z,26.84
2018-05-25T19:39:49.069Z,26.93
2018-05-25T19:42:16.841Z,26.53
2018-05-25T19:44:44.604Z,26.53
2018-05-25T19:47:12.369Z,26.26
2018-05-25T19:49:40.098Z,26.10
2018-05-25T19:52:07.899Z,26.06
2018-05-25T19:54:35.662Z,26.07
2018-05-25T19:57:03.530Z,25.87
2018-05-25T19:59:31.293Z,25.84
2018-05-25T20:01:59.162Z,25.89
2018-05-25T20:04:26.821Z,25.98
2018-05-25T20:06:54.586Z,25.81
2018-05-25T20:09:22.304Z,25.83
2018-05-25T20:11:50.116Z,25.81
2018-05-25T20:14:17.778Z,25.83
2018-05-25T20:16:45.481Z,25.78
2018-05-25T20:19:13.297Z,25.76
2018-05-25T20:21:41.014Z,25.90
2018-05-25T20:24:09.095Z,25.99
2018-05-25T20:26:36.911Z,26.10
2018-05-25T20:29:05.491Z,26.20
2018-05-25T20:31:33.256Z,26.07
2018-05-25T20:34:01.024Z,26.10
2018-05-25T20:36:28.887Z,26.20
2018-05-25T20:38:56.608Z,26.34
2018-05-25T20:41:24.416Z,26.38
2018-05-25T20:43:52.181Z,26.35
2018-05-25T20:46:19.845Z,26.31
2018-05-25T20:48:47.632Z,26.21
2018-05-25T20:51:15.375Z,26.23
2018-05-25T20:53:43.085Z,26.27
2018-05-25T20:56:10.901Z,25.91
2018-05-25T20:58:38.665Z,25.63
2018-05-25T21:01:06.386Z,25.56
2018-05-25T21:03:34.194Z,25.44
2018-05-25T21:06:01.922Z,25.48
2018-05-25T21:08:29.725Z,25.51
2018-05-25T21:10:57.592Z,25.64
2018-05-25T21:13:25.355Z,25.71
2018-05-25T21:15:53.119Z,25.70
2018-05-25T21:18:20.887Z,25.65
2018-05-25T21:20:48.652Z,25.57
2018-05-25T21:23:16.470Z,25.57
2018-05-25T21:25:44.281Z,25.14
2018-05-25T21:28:12.104Z,25.31
2018-05-25T21:30:39.911Z,25.41
2018-05-25T21:33:07.677Z,25.50
2018-05-25T21:35:35.402Z,25.51
2018-05-25T21:38:03.118Z,25.48
2018-05-25T21:40:30.765Z,25.50
2018-05-25T21:42:58.531Z,25.52
2018-05-25T21:45:26.192Z,25.46
2018-05-25T21:47:54.061Z,25.48
2018-05-25T21:50:21.785Z,25.28
2018-05-25T21:52:49.587Z,25.24
2018-05-25T21:55:17.313Z,25.34
2018-05-25T21:57:45.058Z,25.36
2018-05-25T22:00:12.786Z,25.34
2018-05-25T22:02:40.649Z,25.35
2018-05-25T22:05:08.410Z,25.32
2018-05-25T22:07:36.175Z,25.29
2018-05-25T22:10:03.944Z,25.27
2018-05-25T22:12:31.806Z,25.21
2018-05-25T22:14:59.523Z,25.16
2018-05-25T22:17:27.336Z,25.17
2018-05-25T22:19:54.997Z,25.10
2018-05-25T22:22:22.729Z,24.90
2018-05-25T22:24:50.526Z,24.27
2018-05-25T22:27:18.291Z,24.13
2018-05-25T22:29:46.000Z,23.95
2018-05-25T22:32:13.817Z,23.92
2018-05-25T22:34:41.584Z,23.76
2018-05-25T22:37:09.247Z,23.83
2018-05-25T22:39:37.071Z,23.87
2018-05-25T22:42:04.334Z,23.90
2018-05-25T22:44:43.906Z,23.81
2018-05-25T22:47:23.652Z,23.62
2018-05-25T22:50:04.116Z,23.74
2018-05-25T22:52:36.900Z,23.87
2018-05-25T22:55:04.654Z,23.81
2018-05-25T22:57:32.323Z,23.92
2018-05-25T23:00:00.024Z,24.02
2018-05-25T23:02:27.841Z,23.93
2018-05-25T23:04:55.558Z,23.88
2018-05-25T23:07:23.277Z,23.86
2018-05-25T23:09:50.992Z,23.87
2018-05-25T23:12:18.811Z,24.06
2018-05-25T23:14:46.525Z,24.15
2018-05-25T23:17:14.234Z,24.21
2018-05-25T23:19:41.896Z,24.25
2018-05-25T23:22:09.662Z,24.29
2018-05-25T23:24:37.322Z,24.21
2018-05-25T23:27:05.088Z,24.17
2018-05-25T23:29:32.828Z,24.15
2018-05-25T23:32:00.719Z,24.16
2018-05-25T23:34:28.437Z,24.10
2018-05-25T23:36:56.147Z,24.01
2018-05-25T23:39:23.972Z,23.77
2018-05-25T23:41:51.673Z,23.85
2018-05-25T23:44:19.380Z,23.94
2018-05-25T23:46:47.100Z,23.83
2018-05-25T23:49:14.867Z,23.84
2018-05-25T23:51:42.630Z,23.77
2018-05-25T23:54:10.348Z,23.57
2018-05-25T23:56:38.058Z,23.48
2018-05-25T23:59:05.782Z,23.42
